createdAt,value
2023-07-05T00:00:50.016Z,2.35
2023-07-05T00:02:54.262Z,1.90
2023-07-05T00:03:56.227Z,2.10
2023-07-05T00:04:57.997Z,2.20
2023-07-05T00:07:05.576Z,1.67
2023-07-05T00:08:07.518Z,1.90
2023-07-05T00:09:09.486Z,2.03
2023-07-05T00:10:11.959Z,2.25
2023-07-05T00:11:16.216Z,2.10
2023-07-05T00:12:20.908Z,2.03
2023-07-05T00:13:22.681Z,2.50
2023-07-05T00:15:29.424Z,2.78
2023-07-05T00:16:31.228Z,1.83
2023-07-05T00:17:34.586Z,2.45
2023-07-05T00:18:37.546Z,2.05
2023-07-05T00:19:40.766Z,1.98
2023-07-05T00:20:42.451Z,1.92
2023-07-05T00:22:48.148Z,1.92
2023-07-05T00:23:49.759Z,1.75
2023-07-05T00:25:54.621Z,2.20
2023-07-05T00:26:56.477Z,2.50
2023-07-05T00:28:59.668Z,2.30
2023-07-05T00:30:04.394Z,2.33
2023-07-05T00:31:07.390Z,2.30
2023-07-05T00:32:11.686Z,2.17
2023-07-05T00:33:15.803Z,1.83
2023-07-05T00:34:17.497Z,2.20
2023-07-05T00:36:20.854Z,2.60
2023-07-05T00:38:24.608Z,2.30
2023-07-05T00:39:27.922Z,2.40
2023-07-05T00:40:29.990Z,2.33
2023-07-05T00:41:31.732Z,1.90
2023-07-05T00:43:47.980Z,2.30
2023-07-05T00:45:11.550Z,1.90
2023-07-05T00:46:25.461Z,2.08
2023-07-05T00:47:33.437Z,1.80
2023-07-05T00:48:42.616Z,1.80
2023-07-05T00:49:44.592Z,2.20
2023-07-05T00:50:52.161Z,2.13
2023-07-05T00:52:03.211Z,2.03
2023-07-05T00:53:05.231Z,2.30
2023-07-05T00:54:07.088Z,2.58
2023-07-05T00:55:09.964Z,2.50
2023-07-05T00:56:18.811Z,2.50
2023-07-05T00:57:29.445Z,2.80
2023-07-05T00:58:34.186Z,2.33
2023-07-05T00:59:48.074Z,2.35
2023-07-05T01:00:50.297Z,2.53
2023-07-05T01:02:02.689Z,2.70
2023-07-05T01:03:13.212Z,2.67
2023-07-05T01:04:15.136Z,2.45
2023-07-05T01:06:23.521Z,2.42
2023-07-05T01:07:25.281Z,2.70
2023-07-05T01:09:29.862Z,2.60
2023-07-05T01:10:32.019Z,2.38
2023-07-05T01:11:42.078Z,2.72
2023-07-05T01:12:56.690Z,2.92
2023-07-05T01:14:20.499Z,2.95
2023-07-05T01:15:32.213Z,2.60
2023-07-05T01:16:55.795Z,2.70
2023-07-05T01:18:32.879Z,2.60
2023-07-05T01:20:07.236Z,2.28
2023-07-05T01:21:27.546Z,2.22
2023-07-05T01:22:52.479Z,2.50
2023-07-05T01:24:18.004Z,2.63
2023-07-05T01:25:41.275Z,2.50
2023-07-05T01:27:24.149Z,2.47
2023-07-05T01:28:55.309Z,2.53
2023-07-05T01:30:18.240Z,2.78
2023-07-05T01:31:38.462Z,2.95
2023-07-05T01:32:56.607Z,2.88
2023-07-05T01:34:15.267Z,2.60
2023-07-05T01:35:26.695Z,2.95
2023-07-05T01:36:31.198Z,3.03
2023-07-05T01:37:44.874Z,2.60
2023-07-05T01:38:46.597Z,2.50
2023-07-05T01:39:49.015Z,2.53
2023-07-05T01:40:55.139Z,2.63
2023-07-05T01:41:56.942Z,2.45
2023-07-05T01:44:02.492Z,2.55
2023-07-05T01:45:04.458Z,2.63
2023-07-05T01:46:32.094Z,2.60
2023-07-05T01:47:50.377Z,2.30
2023-07-05T01:49:04.205Z,2.60
2023-07-05T01:50:15.601Z,1.95
2023-07-05T01:51:40.143Z,2.67
2023-07-05T01:53:21.673Z,2.20
2023-07-05T01:54:51.385Z,1.98
2023-07-05T01:56:03.383Z,2.00
2023-07-05T01:57:44.542Z,2.40
2023-07-05T02:00:00.550Z,2.50
2023-07-05T02:01:05.431Z,2.75
2023-07-05T02:02:10.710Z,2.58
2023-07-05T02:03:19.542Z,2.83
2023-07-05T02:04:24.551Z,2.63
2023-07-05T02:05:29.701Z,2.42
2023-07-05T02:06:33.857Z,2.70
2023-07-05T02:07:35.811Z,2.42
2023-07-05T02:08:39.502Z,2.85
2023-07-05T02:09:42.575Z,2.30
2023-07-05T02:10:44.321Z,2.72
2023-07-05T02:11:46.149Z,2.80
2023-07-05T02:12:49.085Z,2.25
2023-07-05T02:13:51.041Z,2.47
2023-07-05T02:14:53.012Z,2.88
2023-07-05T02:15:55.026Z,2.13
2023-07-05T02:16:56.923Z,2.00
2023-07-05T02:17:58.756Z,2.35
2023-07-05T02:20:07.486Z,2.13
2023-07-05T02:21:11.636Z,2.78
2023-07-05T02:22:13.600Z,2.72
2023-07-05T02:23:15.460Z,2.50
2023-07-05T02:24:17.224Z,2.90
2023-07-05T02:25:21.437Z,2.80
2023-07-05T02:26:25.454Z,2.83
2023-07-05T02:27:28.961Z,2.50
2023-07-05T02:28:34.353Z,2.20
2023-07-05T02:29:36.057Z,2.40
2023-07-05T02:31:40.434Z,2.58
2023-07-05T02:33:46.856Z,2.80
2023-07-05T02:34:53.592Z,3.08
2023-07-05T02:35:55.826Z,2.63
2023-07-05T02:36:57.838Z,2.55
2023-07-05T02:38:04.968Z,2.33
2023-07-05T02:39:08.847Z,2.90
2023-07-05T02:40:10.774Z,2.80
2023-07-05T02:41:12.527Z,2.60
2023-07-05T02:43:16.507Z,2.67
2023-07-05T02:44:18.174Z,2.70
2023-07-05T02:46:21.480Z,2.80
2023-07-05T02:47:25.548Z,2.70
2023-07-05T02:48:27.219Z,2.35
2023-07-05T02:50:33.852Z,2.22
2023-07-05T02:51:35.565Z,2.50
2023-07-05T02:53:41.409Z,2.45
2023-07-05T02:55:45.218Z,2.70
2023-07-05T02:56:46.935Z,2.88
2023-07-05T02:59:52.701Z,3.00
2023-07-05T03:02:01.159Z,2.65
2023-07-05T03:03:03.112Z,3.00
2023-07-05T03:04:05.348Z,3.10
2023-07-05T03:05:11.301Z,3.00
2023-07-05T03:06:15.205Z,2.58
2023-07-05T03:07:16.933Z,2.80
2023-07-05T03:08:18.752Z,3.75
2023-07-05T03:10:24.373Z,3.80
2023-07-05T03:11:26.152Z,3.92
2023-07-05T03:13:32.388Z,3.63
2023-07-05T03:14:35.952Z,2.60
2023-07-05T03:15:39.506Z,3.05
2023-07-05T03:16:45.003Z,2.83
2023-07-05T03:17:47.201Z,3.00
2023-07-05T03:19:53.507Z,3.10
2023-07-05T03:20:58.087Z,2.70
2023-07-05T03:22:00.408Z,2.90
2023-07-05T03:23:02.079Z,2.60
2023-07-05T03:24:05.157Z,2.58
2023-07-05T03:25:07.376Z,2.90
2023-07-05T03:26:11.772Z,3.10
2023-07-05T03:27:13.560Z,3.33
2023-07-05T03:28:18.031Z,2.72
2023-07-05T03:29:20.020Z,2.97
2023-07-05T03:30:24.294Z,3.13
2023-07-05T03:31:26.087Z,3.25
2023-07-05T03:32:30.698Z,3.22
2023-07-05T03:33:35.862Z,3.45
2023-07-05T03:34:37.707Z,3.35
2023-07-05T03:35:39.415Z,3.22
2023-07-05T03:36:41.196Z,2.85
2023-07-05T03:38:50.136Z,3.22
2023-07-05T03:39:54.076Z,2.83
2023-07-05T03:41:15.060Z,3.10
2023-07-05T03:42:19.081Z,2.67
2023-07-05T03:43:21.053Z,3.50
2023-07-05T03:45:25.321Z,3.67
2023-07-05T03:46:27.176Z,3.15
2023-07-05T03:47:29.892Z,3.10
2023-07-05T03:48:39.122Z,3.10
2023-07-05T03:49:43.656Z,2.85
2023-07-05T03:50:45.366Z,3.53
2023-07-05T03:52:51.047Z,2.70
2023-07-05T03:53:58.724Z,3.03
2023-07-05T03:55:00.422Z,3.40
2023-07-05T03:56:04.218Z,2.75
2023-07-05T03:57:06.320Z,3.15
2023-07-05T03:58:08.027Z,3.20
2023-07-05T03:59:10.779Z,2.95
2023-07-05T04:00:15.789Z,2.90
2023-07-05T04:01:26.226Z,3.25
2023-07-05T04:02:27.981Z,2.90
2023-07-05T04:04:31.457Z,3.20
2023-07-05T04:05:33.927Z,2.90
2023-07-05T04:06:35.735Z,2.55
2023-07-05T04:07:37.542Z,3.20
2023-07-05T04:09:42.561Z,3.25
2023-07-05T04:11:51.765Z,3.30
2023-07-05T04:12:53.512Z,2.97
2023-07-05T04:14:58.390Z,3.40
2023-07-05T04:16:02.287Z,3.40
2023-07-05T04:17:04.258Z,3.17
2023-07-05T04:18:08.450Z,2.83
2023-07-05T04:20:12.814Z,3.40
2023-07-05T04:21:14.751Z,3.13
2023-07-05T04:22:18.946Z,3.15
2023-07-05T04:23:20.630Z,3.25
2023-07-05T04:25:23.960Z,3.47
2023-07-05T04:27:31.549Z,3.50
2023-07-05T04:28:35.042Z,3.28
2023-07-05T04:29:36.708Z,3.40
2023-07-05T04:31:40.114Z,3.07
2023-07-05T04:33:44.099Z,3.53
2023-07-05T04:34:45.791Z,3.35
2023-07-05T04:36:52.776Z,3.33
2023-07-05T04:39:01.765Z,3.03
2023-07-05T04:40:04.773Z,3.30
2023-07-05T04:41:06.515Z,3.28
2023-07-05T04:43:10.416Z,3.22
2023-07-05T04:44:12.119Z,3.20
2023-07-05T04:46:15.551Z,3.90
2023-07-05T04:47:17.450Z,3.70
2023-07-05T04:48:20.002Z,3.30
2023-07-05T04:49:24.170Z,3.13
2023-07-05T04:50:28.334Z,3.35
2023-07-05T04:51:30.128Z,3.38
2023-07-05T04:52:31.887Z,4.00
2023-07-05T04:53:37.274Z,3.15
2023-07-05T04:54:41.159Z,3.13
2023-07-05T04:55:50.704Z,3.22
2023-07-05T04:56:52.391Z,2.90
2023-07-05T04:58:58.397Z,3.20
2023-07-05T05:00:05.750Z,3.00
2023-07-05T05:01:09.214Z,2.92
2023-07-05T05:02:12.232Z,3.70
2023-07-05T05:03:14.599Z,3.10
2023-07-05T05:04:16.500Z,3.25
2023-07-05T05:05:18.329Z,3.33
2023-07-05T05:06:20.052Z,3.30
2023-07-05T05:08:26.078Z,3.30
2023-07-05T05:09:27.822Z,3.13
2023-07-05T05:10:30.078Z,3.17
2023-07-05T05:12:35.717Z,3.65
2023-07-05T05:14:39.692Z,3.05
2023-07-05T05:16:43.192Z,3.30
2023-07-05T05:17:45.084Z,3.28
2023-07-05T05:18:46.847Z,3.45
2023-07-05T05:20:51.128Z,3.30
2023-07-05T05:21:55.277Z,3.00
2023-07-05T05:22:57.016Z,3.40
2023-07-05T05:24:00.976Z,3.10
2023-07-05T05:25:02.995Z,2.90
2023-07-05T05:26:04.797Z,3.28
2023-07-05T05:27:08.846Z,2.80
2023-07-05T05:28:14.072Z,3.20
2023-07-05T05:29:16.078Z,3.03
2023-07-05T05:30:20.103Z,3.10
2023-07-05T05:31:21.890Z,2.70
2023-07-05T05:32:23.695Z,2.95
2023-07-05T05:33:25.484Z,2.90
2023-07-05T05:35:29.468Z,3.13
2023-07-05T05:36:31.231Z,2.85
2023-07-05T05:38:36.850Z,2.60
2023-07-05T05:39:38.622Z,3.03
2023-07-05T05:41:41.884Z,3.53
2023-07-05T05:42:43.727Z,3.20
2023-07-05T05:43:47.948Z,3.28
2023-07-05T05:44:49.681Z,3.35
2023-07-05T05:45:51.438Z,2.83
2023-07-05T05:47:57.811Z,2.85
2023-07-05T05:48:59.577Z,2.80
2023-07-05T05:51:03.018Z,3.00
2023-07-05T05:52:07.648Z,3.38
2023-07-05T05:53:12.382Z,3.20
2023-07-05T05:54:14.178Z,2.95
2023-07-05T05:55:16.290Z,2.95
2023-07-05T05:56:20.761Z,2.75
2023-07-05T05:57:24.667Z,3.00
2023-07-05T05:59:30.273Z,3.40
2023-07-05T06:00:32.892Z,3.03
2023-07-05T06:01:34.710Z,3.20
2023-07-05T06:02:39.847Z,3.22
2023-07-05T06:03:44.197Z,2.90
2023-07-05T06:04:48.124Z,3.00
2023-07-05T06:05:50.665Z,2.90
2023-07-05T06:06:52.390Z,3.05
2023-07-05T06:07:56.550Z,2.58
2023-07-05T06:08:58.253Z,2.50
2023-07-05T06:10:02.986Z,3.08
2023-07-05T06:11:05.759Z,2.83
2023-07-05T06:12:07.898Z,2.85
2023-07-05T06:13:11.961Z,3.10
2023-07-05T06:14:13.717Z,2.83
2023-07-05T06:16:19.543Z,2.83
2023-07-05T06:17:21.769Z,2.85
2023-07-05T06:18:23.546Z,2.67
2023-07-05T06:20:28.444Z,2.80
2023-07-05T06:21:30.524Z,2.80
2023-07-05T06:22:32.880Z,2.80
2023-07-05T06:23:34.700Z,2.60
2023-07-05T06:25:37.939Z,3.28
2023-07-05T06:26:42.338Z,3.17
2023-07-05T06:27:44.017Z,2.92
2023-07-05T06:29:48.034Z,3.08
2023-07-05T06:31:52.293Z,2.90
2023-07-05T06:32:59.073Z,2.63
2023-07-05T06:34:01.496Z,2.95
2023-07-05T06:35:03.326Z,2.90
2023-07-05T06:36:06.769Z,2.95
2023-07-05T06:37:10.742Z,2.90
2023-07-05T06:38:12.480Z,2.47
2023-07-05T06:39:15.196Z,2.50
2023-07-05T06:40:16.911Z,2.85
2023-07-05T06:42:21.440Z,3.17
2023-07-05T06:43:30.592Z,3.17
2023-07-05T06:44:32.273Z,3.10
2023-07-05T06:46:36.468Z,2.97
2023-07-05T06:47:38.455Z,2.97
2023-07-05T06:48:43.182Z,3.08
2023-07-05T06:49:44.846Z,3.10
2023-07-05T06:51:55.489Z,3.08
2023-07-05T06:53:22.625Z,2.97
2023-07-05T06:54:22.545Z,3.33
2023-07-05T06:55:24.295Z,2.97
2023-07-05T06:57:27.736Z,2.88
2023-07-05T06:58:32.121Z,2.97
2023-07-05T06:59:33.954Z,2.97
2023-07-05T07:00:36.133Z,3.10
2023-07-05T07:01:38.003Z,3.35
2023-07-05T07:02:39.775Z,3.10
2023-07-05T07:03:43.387Z,2.90
2023-07-05T07:04:49.855Z,3.22
2023-07-05T07:05:54.034Z,3.70
2023-07-05T07:06:55.754Z,2.92
2023-07-05T07:07:57.693Z,3.25
2023-07-05T07:08:59.592Z,3.42
2023-07-05T07:10:02.844Z,3.80
2023-07-05T07:11:08.572Z,3.35
2023-07-05T07:12:12.618Z,3.30
2023-07-05T07:14:16.732Z,3.25
2023-07-05T07:15:18.534Z,3.42
2023-07-05T07:17:22.065Z,3.35
2023-07-05T07:18:25.420Z,3.03
2023-07-05T07:19:27.336Z,3.58
2023-07-05T07:20:29.273Z,3.10
2023-07-05T07:21:31.567Z,3.65
2023-07-05T07:22:33.309Z,3.78
2023-07-05T07:23:35.197Z,3.58
2023-07-05T07:25:38.484Z,3.80
2023-07-05T07:26:40.244Z,3.60
2023-07-05T07:28:47.429Z,3.83
2023-07-05T07:29:51.910Z,3.40
2023-07-05T07:30:54.592Z,3.30
2023-07-05T07:31:56.417Z,3.30
2023-07-05T07:34:02.397Z,3.40
2023-07-05T07:35:04.466Z,3.30
2023-07-05T07:36:15.268Z,3.72
2023-07-05T07:37:19.067Z,3.30
2023-07-05T07:38:20.715Z,3.65
2023-07-05T07:40:24.008Z,3.63
2023-07-05T07:42:31.800Z,3.50
2023-07-05T07:43:33.546Z,3.40
2023-07-05T07:45:36.852Z,3.67
2023-07-05T07:47:41.265Z,3.08
2023-07-05T07:49:51.660Z,2.80
2023-07-05T07:50:53.640Z,3.00
2023-07-05T07:51:58.919Z,2.00
2023-07-05T07:53:00.624Z,2.30
2023-07-05T07:55:07.872Z,2.47
2023-07-05T07:56:13.974Z,2.70
2023-07-05T07:57:18.848Z,2.50
2023-07-05T07:58:20.584Z,2.88
2023-07-05T08:00:24.490Z,2.67
2023-07-05T08:01:27.879Z,2.40
2023-07-05T08:02:30.888Z,2.20
2023-07-05T08:03:32.712Z,2.47
2023-07-05T08:04:38.238Z,2.15
2023-07-05T08:05:40.084Z,2.22
2023-07-05T08:06:52.248Z,2.22
2023-07-05T08:07:54.084Z,2.17
2023-07-05T08:08:56.617Z,2.35
2023-07-05T08:10:00.646Z,2.60
2023-07-05T08:11:06.800Z,2.10
2023-07-05T08:12:10.000Z,2.13
2023-07-05T08:13:11.778Z,1.90
2023-07-05T08:15:20.470Z,2.15
2023-07-05T08:17:26.566Z,1.55
2023-07-05T08:18:29.434Z,2.05
2023-07-05T08:19:31.802Z,2.28
2023-07-05T08:20:36.271Z,2.30
2023-07-05T08:22:39.965Z,1.70
2023-07-05T08:23:43.275Z,2.28
2023-07-05T08:24:45.038Z,1.70
2023-07-05T08:26:48.945Z,1.83
2023-07-05T08:27:50.593Z,1.70
2023-07-05T08:29:53.957Z,1.73
2023-07-05T08:31:01.149Z,1.88
2023-07-05T08:32:05.700Z,1.88
2023-07-05T08:33:07.875Z,1.88
2023-07-05T08:34:13.527Z,2.25
2023-07-05T08:35:15.256Z,2.08
2023-07-05T08:36:29.510Z,2.17
2023-07-05T08:37:31.456Z,2.15
2023-07-05T08:39:35.628Z,1.95
2023-07-05T08:40:41.459Z,1.88
2023-07-05T08:41:45.505Z,1.90
2023-07-05T08:43:03.011Z,2.03
2023-07-05T08:44:04.887Z,1.83
2023-07-05T08:45:19.576Z,1.90
2023-07-05T08:46:22.513Z,1.98
2023-07-05T08:47:35.103Z,2.00
2023-07-05T08:48:40.380Z,1.55
2023-07-05T08:50:14.246Z,1.92
2023-07-05T08:52:32.882Z,1.83
2023-07-05T08:53:48.370Z,1.88
2023-07-05T08:54:58.368Z,2.35
2023-07-05T08:56:21.474Z,1.75
2023-07-05T08:57:54.873Z,1.95
2023-07-05T08:59:22.725Z,1.52
2023-07-05T09:00:40.995Z,2.00
2023-07-05T09:01:43.607Z,2.15
2023-07-05T09:02:47.566Z,1.90
2023-07-05T09:03:51.908Z,2.00
2023-07-05T09:04:56.787Z,2.03
2023-07-05T09:06:23.018Z,2.00
2023-07-05T09:07:57.728Z,2.33
2023-07-05T09:09:06.045Z,2.10
2023-07-05T09:10:16.292Z,2.33
2023-07-05T09:11:46.091Z,2.00
2023-07-05T09:13:03.148Z,2.08
2023-07-05T09:14:24.292Z,2.13
2023-07-05T09:15:35.534Z,2.35
2023-07-05T09:17:14.114Z,2.13
2023-07-05T09:18:36.491Z,2.03
2023-07-05T09:19:46.660Z,2.45
2023-07-05T09:21:33.508Z,2.22
2023-07-05T09:22:38.570Z,2.35
2023-07-05T09:23:46.070Z,1.95
2023-07-05T09:24:48.049Z,2.00
2023-07-05T09:25:56.341Z,2.13
2023-07-05T09:27:04.971Z,2.17
2023-07-05T09:28:22.044Z,1.85
2023-07-05T09:29:58.466Z,1.73
2023-07-05T09:31:01.143Z,1.60
2023-07-05T09:32:14.376Z,1.55
2023-07-05T09:33:35.322Z,1.40
2023-07-05T09:35:00.575Z,1.50
2023-07-05T09:36:23.616Z,1.75
2023-07-05T09:38:01.597Z,1.58
2023-07-05T09:39:54.087Z,2.05
2023-07-05T09:41:30.074Z,2.10
2023-07-05T09:43:32.598Z,1.80
2023-07-05T09:44:55.020Z,1.63
2023-07-05T09:50:11.353Z,1.67
2023-07-05T09:51:33.910Z,1.98
2023-07-05T10:02:29.164Z,1.45
2023-07-05T10:03:37.932Z,2.20
2023-07-05T10:04:54.392Z,1.50
2023-07-05T10:06:02.306Z,1.50
2023-07-05T10:07:04.897Z,1.40
2023-07-05T10:08:16.248Z,1.55
2023-07-05T10:09:22.212Z,1.60
2023-07-05T10:10:33.561Z,1.58
2023-07-05T10:11:46.886Z,1.40
2023-07-05T10:12:52.916Z,1.13
2023-07-05T10:14:04.999Z,1.10
2023-07-05T10:15:24.562Z,1.33
2023-07-05T10:16:26.618Z,1.35
2023-07-05T10:17:43.450Z,1.33
2023-07-05T10:18:45.251Z,1.00
2023-07-05T10:19:52.498Z,1.50
2023-07-05T10:20:59.000Z,1.60
2023-07-05T10:22:15.851Z,1.20
2023-07-05T10:23:23.029Z,1.27
2023-07-05T10:24:26.004Z,1.00
2023-07-05T10:25:35.350Z,1.10
2023-07-05T10:26:37.222Z,1.33
2023-07-05T10:28:43.128Z,0.88
2023-07-05T10:29:48.653Z,1.10
2023-07-05T10:30:58.158Z,1.08
2023-07-05T10:32:01.451Z,1.40
2023-07-05T10:33:09.433Z,1.40
2023-07-05T10:34:20.847Z,1.40
2023-07-05T10:35:25.761Z,1.40
2023-07-05T10:36:27.578Z,1.30
2023-07-05T10:37:39.818Z,1.25
2023-07-05T10:38:49.970Z,1.33
2023-07-05T10:39:51.788Z,1.30
2023-07-05T10:42:00.837Z,1.10
2023-07-05T10:43:06.786Z,1.60
2023-07-05T10:44:20.686Z,1.15
2023-07-05T10:45:25.886Z,1.08
2023-07-05T10:46:28.788Z,1.27
2023-07-05T10:47:32.923Z,1.58
2023-07-05T10:48:43.343Z,1.70
2023-07-05T10:49:48.168Z,1.20
2023-07-05T10:50:50.984Z,1.20
2023-07-05T10:51:57.491Z,1.20
2023-07-05T10:53:06.056Z,1.20
2023-07-05T10:54:19.815Z,1.42
2023-07-05T10:55:36.947Z,1.42
2023-07-05T10:56:41.521Z,1.30
2023-07-05T10:57:53.693Z,1.23
2023-07-05T11:00:44.905Z,1.08
2023-07-05T11:02:15.680Z,1.20
2023-07-05T11:03:25.405Z,1.05
2023-07-05T11:04:31.371Z,1.10
2023-07-05T11:05:45.075Z,1.15
2023-07-05T11:06:49.471Z,1.45
2023-07-05T11:07:56.457Z,1.10
2023-07-05T11:08:58.442Z,0.98
2023-07-05T11:10:00.333Z,1.52
2023-07-05T11:11:20.754Z,1.20
2023-07-05T11:12:26.551Z,1.00
2023-07-05T11:13:30.962Z,1.20
2023-07-05T11:14:33.933Z,0.98
2023-07-05T11:15:36.354Z,1.23
2023-07-05T11:16:41.078Z,1.08
2023-07-05T11:17:47.919Z,1.40
2023-07-05T11:18:57.396Z,1.27
2023-07-05T11:19:59.533Z,1.10
2023-07-05T11:21:01.336Z,0.90
2023-07-05T11:22:05.306Z,1.27
2023-07-05T11:23:12.494Z,1.38
2023-07-05T11:24:39.851Z,1.10
2023-07-05T11:25:53.907Z,1.05
2023-07-05T11:26:55.561Z,1.10
2023-07-05T11:29:22.510Z,0.90
2023-07-05T11:30:47.965Z,0.90
2023-07-05T11:31:49.847Z,0.90
2023-07-05T11:33:04.197Z,1.02
2023-07-05T11:34:27.316Z,1.00
2023-07-05T11:35:52.256Z,1.15
2023-07-05T11:37:06.237Z,1.00
2023-07-05T11:38:08.022Z,1.08
2023-07-05T11:40:49.882Z,0.80
2023-07-05T11:41:51.784Z,0.95
2023-07-05T11:43:57.552Z,1.23
2023-07-05T11:45:05.258Z,1.02
2023-07-05T11:46:49.571Z,1.10
2023-07-05T11:47:57.232Z,0.98
2023-07-05T11:49:16.058Z,1.23
2023-07-05T11:50:29.209Z,1.00
2023-07-05T11:51:38.575Z,1.02
2023-07-05T11:52:47.947Z,0.85
2023-07-05T11:53:50.085Z,1.00
2023-07-05T11:55:13.459Z,1.13
2023-07-05T11:56:18.276Z,1.00
2023-07-05T11:57:20.529Z,1.13
2023-07-05T11:58:30.976Z,1.15
2023-07-05T11:59:37.594Z,0.93
2023-07-05T12:00:59.659Z,0.95
2023-07-05T12:02:13.937Z,1.30
2023-07-05T12:03:24.022Z,0.90
2023-07-05T12:04:28.319Z,1.00
2023-07-05T12:05:37.280Z,1.10
2023-07-05T12:06:42.305Z,1.00
2023-07-05T12:07:48.369Z,0.90
2023-07-05T12:09:04.817Z,0.93
2023-07-05T12:10:08.639Z,0.77
2023-07-05T12:11:12.996Z,0.98
2023-07-05T12:12:15.159Z,1.10
2023-07-05T12:13:24.069Z,1.02
2023-07-05T12:14:26.203Z,1.00
2023-07-05T12:15:28.328Z,0.93
2023-07-05T12:16:31.800Z,1.13
2023-07-05T12:17:38.333Z,0.82
2023-07-05T12:18:46.006Z,0.90
2023-07-05T12:19:51.132Z,1.05
2023-07-05T12:20:55.835Z,1.15
2023-07-05T12:22:10.878Z,1.00
2023-07-05T12:23:14.664Z,1.02
2023-07-05T12:24:19.171Z,0.90
2023-07-05T12:25:21.270Z,1.00
2023-07-05T12:26:25.829Z,0.90
2023-07-05T12:27:37.105Z,1.40
2023-07-05T12:28:43.749Z,0.80
2023-07-05T12:29:50.723Z,0.95
2023-07-05T12:31:07.766Z,0.77
2023-07-05T12:32:18.106Z,1.33
2023-07-05T12:33:25.924Z,1.17
2023-07-05T12:34:27.622Z,0.98
2023-07-05T12:35:29.962Z,1.13
2023-07-05T12:36:44.169Z,1.13
2023-07-05T12:37:49.409Z,1.13
2023-07-05T12:39:06.181Z,1.05
2023-07-05T12:40:17.998Z,1.50
2023-07-05T12:41:28.062Z,0.85
2023-07-05T12:42:30.208Z,1.20
2023-07-05T12:44:40.201Z,1.00
2023-07-05T12:45:42.266Z,0.90
2023-07-05T12:46:48.315Z,1.05
2023-07-05T12:47:51.538Z,1.20
2023-07-05T12:48:53.956Z,1.13
2023-07-05T12:50:05.754Z,0.88
2023-07-05T12:51:29.420Z,1.00
2023-07-05T12:52:31.469Z,0.90
2023-07-05T12:53:35.868Z,1.00
2023-07-05T12:54:39.150Z,0.80
2023-07-05T12:55:42.071Z,1.00
2023-07-05T12:56:46.973Z,0.93
2023-07-05T12:57:53.324Z,1.10
2023-07-05T12:59:00.499Z,1.52
2023-07-05T13:00:06.690Z,0.88
2023-07-05T13:01:13.632Z,0.80
2023-07-05T13:02:32.138Z,0.85
2023-07-05T13:03:35.544Z,1.00
2023-07-05T13:04:39.012Z,1.08
2023-07-05T13:05:42.112Z,0.95
2023-07-05T13:06:44.311Z,0.95
2023-07-05T13:07:49.773Z,0.90
2023-07-05T13:08:54.228Z,1.25
2023-07-05T13:10:09.821Z,1.33
2023-07-05T13:11:16.161Z,1.00
2023-07-05T13:12:17.976Z,1.45
2023-07-05T13:14:39.908Z,1.17
2023-07-05T13:15:41.929Z,1.27
2023-07-05T13:17:54.402Z,0.90
2023-07-05T13:19:04.088Z,1.33
2023-07-05T13:20:20.984Z,0.93
2023-07-05T13:21:22.759Z,1.42
2023-07-05T13:23:30.863Z,1.20
2023-07-05T13:24:32.474Z,0.93
2023-07-05T13:26:47.814Z,1.05
2023-07-05T13:27:49.515Z,1.48
2023-07-05T13:28:52.488Z,1.25
2023-07-05T13:30:07.824Z,1.02
2023-07-05T13:31:09.541Z,1.20
2023-07-05T13:32:35.644Z,1.35
2023-07-05T13:33:37.977Z,0.82
2023-07-05T13:34:39.751Z,1.30
2023-07-05T13:35:41.626Z,1.15
2023-07-05T13:37:45.211Z,1.38
2023-07-05T13:38:46.980Z,1.30
2023-07-05T13:40:54.160Z,1.42
2023-07-05T13:41:59.421Z,1.10
2023-07-05T13:43:05.917Z,1.10
2023-07-05T13:44:16.708Z,1.10
2023-07-05T13:45:23.436Z,1.42
2023-07-05T13:46:25.324Z,1.67
2023-07-05T13:47:26.984Z,1.38
2023-07-05T13:48:29.793Z,1.17
2023-07-05T13:49:31.608Z,1.20
2023-07-05T13:50:35.198Z,1.38
2023-07-05T13:51:44.067Z,1.42
2023-07-05T13:52:47.531Z,1.40
2023-07-05T13:53:49.208Z,1.52
2023-07-05T13:55:57.113Z,1.80
2023-07-05T13:57:01.135Z,1.90
2023-07-05T13:58:07.998Z,2.20
2023-07-05T13:59:16.431Z,2.10
2023-07-05T14:00:19.115Z,2.17
2023-07-05T14:01:23.644Z,2.03
2023-07-05T14:02:35.310Z,1.65
2023-07-05T14:03:52.879Z,2.55
2023-07-05T14:05:00.214Z,2.08
2023-07-05T14:06:01.876Z,2.20
2023-07-05T14:08:13.145Z,2.17
2023-07-05T14:09:15.409Z,2.30
2023-07-05T14:10:17.569Z,2.53
2023-07-05T14:11:23.169Z,2.60
2023-07-05T14:12:27.467Z,2.35
2023-07-05T14:13:31.349Z,2.63
2023-07-05T14:14:33.061Z,2.13
2023-07-05T14:16:46.948Z,2.38
2023-07-05T14:17:51.324Z,2.47
2023-07-05T14:18:53.097Z,2.40
2023-07-05T14:20:56.785Z,2.15
2023-07-05T14:22:03.309Z,2.30
2023-07-05T14:23:11.687Z,2.30
2023-07-05T14:24:18.271Z,2.60
2023-07-05T14:25:22.869Z,2.47
2023-07-05T14:26:25.668Z,2.65
2023-07-05T14:27:28.689Z,2.40
2023-07-05T14:28:31.563Z,2.70
2023-07-05T14:29:33.224Z,2.50
2023-07-05T14:30:37.318Z,2.63
2023-07-05T14:31:39.118Z,2.65
2023-07-05T14:32:41.174Z,2.80
2023-07-05T14:33:47.673Z,2.95
2023-07-05T14:34:49.357Z,2.55
2023-07-05T14:36:52.804Z,2.30
2023-07-05T14:38:56.253Z,3.03
2023-07-05T14:39:58.903Z,2.95
2023-07-05T14:41:00.906Z,3.10
2023-07-05T14:42:03.636Z,3.30
2023-07-05T14:43:06.053Z,2.50
2023-07-05T14:44:09.536Z,3.10
2023-07-05T14:45:17.184Z,2.70
2023-07-05T14:46:19.142Z,2.83
2023-07-05T14:47:20.879Z,2.70
2023-07-05T14:49:29.609Z,2.97
2023-07-05T14:50:32.961Z,2.95
2023-07-05T14:51:35.368Z,2.83
2023-07-05T14:52:37.330Z,3.22
2023-07-05T14:53:39.305Z,3.08
2023-07-05T14:54:41.065Z,2.55
2023-07-05T14:55:43.508Z,2.85
2023-07-05T14:56:48.059Z,3.20
2023-07-05T14:57:52.954Z,3.00
2023-07-05T14:58:56.900Z,3.15
2023-07-05T15:00:01.834Z,3.30
2023-07-05T15:01:05.464Z,3.58
2023-07-05T15:02:18.724Z,3.53
2023-07-05T15:03:32.679Z,3.53
2023-07-05T15:04:34.402Z,3.78
2023-07-05T15:05:36.207Z,3.65
2023-07-05T15:07:39.637Z,3.67
2023-07-05T15:08:41.584Z,3.88
2023-07-05T15:09:43.257Z,3.72
2023-07-05T15:11:46.637Z,3.70
2023-07-05T15:13:50.002Z,4.18
2023-07-05T15:14:51.921Z,3.90
2023-07-05T15:15:53.661Z,3.70
2023-07-05T15:16:57.162Z,3.78
2023-07-05T15:17:59.076Z,4.15
2023-07-05T15:20:02.325Z,3.80
2023-07-05T15:21:04.264Z,3.67
2023-07-05T15:22:08.605Z,3.80
2023-07-05T15:23:12.560Z,3.60
2023-07-05T15:24:16.763Z,4.40
2023-07-05T15:25:20.424Z,4.05
2023-07-05T15:26:25.690Z,4.18
2023-07-05T15:27:28.443Z,3.78
2023-07-05T15:28:31.329Z,3.72
2023-07-05T15:30:34.908Z,3.65
2023-07-05T15:31:37.892Z,3.95
2023-07-05T15:32:40.868Z,3.50
2023-07-05T15:33:42.746Z,3.70
2023-07-05T15:35:51.893Z,3.40
2023-07-05T15:36:53.933Z,3.83
2023-07-05T15:37:55.896Z,3.90
2023-07-05T15:38:59.760Z,3.53
2023-07-05T15:40:02.450Z,3.92
2023-07-05T15:41:07.007Z,3.53
2023-07-05T15:42:11.261Z,3.58
2023-07-05T15:43:13.138Z,3.90
2023-07-05T15:44:14.835Z,3.67
2023-07-05T15:46:21.741Z,3.80
2023-07-05T15:47:23.474Z,3.97
2023-07-05T15:48:25.424Z,3.72
2023-07-05T15:49:27.218Z,3.72
2023-07-05T15:51:33.778Z,3.42
2023-07-05T15:52:37.117Z,3.50
2023-07-05T15:53:39.171Z,3.90
2023-07-05T15:54:40.918Z,3.90
2023-07-05T15:55:42.654Z,4.10
2023-07-05T15:57:46.976Z,3.97
2023-07-05T15:58:53.271Z,4.03
2023-07-05T15:59:59.238Z,3.78
2023-07-05T16:01:12.193Z,3.92
2023-07-05T16:02:18.612Z,3.60
2023-07-05T16:03:22.795Z,3.72
2023-07-05T16:04:28.197Z,3.92
2023-07-05T16:05:32.161Z,4.18
2023-07-05T16:06:36.367Z,4.30
2023-07-05T16:07:38.098Z,3.80
2023-07-05T16:08:40.014Z,4.30
2023-07-05T16:09:42.037Z,4.15
2023-07-05T16:10:44.076Z,3.70
2023-07-05T16:11:48.251Z,3.90
2023-07-05T16:12:53.379Z,4.32
2023-07-05T16:13:55.180Z,4.75
2023-07-05T16:14:56.941Z,4.55
2023-07-05T16:16:00.639Z,4.47
2023-07-05T16:17:05.435Z,4.25
2023-07-05T16:18:08.863Z,4.80
2023-07-05T16:19:11.598Z,4.60
2023-07-05T16:20:13.592Z,4.50
2023-07-05T16:21:16.419Z,4.55
2023-07-05T16:22:19.557Z,4.60
2023-07-05T16:23:21.299Z,4.40
2023-07-05T16:24:23.162Z,4.55
2023-07-05T16:25:27.011Z,4.63
2023-07-05T16:26:29.367Z,4.82
2023-07-05T16:27:31.212Z,4.53
2023-07-05T16:28:35.300Z,4.50
2023-07-05T16:29:37.717Z,4.75
2023-07-05T16:30:41.657Z,5.15
2023-07-05T16:31:43.417Z,4.93
2023-07-05T16:32:45.158Z,4.50
2023-07-05T16:33:48.367Z,4.88
2023-07-05T16:34:50.313Z,4.70
2023-07-05T16:35:57.238Z,4.68
2023-07-05T16:36:59.065Z,4.80
2023-07-05T16:38:00.772Z,4.90
2023-07-05T16:39:04.074Z,4.82
2023-07-05T16:40:06.732Z,5.13
2023-07-05T16:41:10.843Z,4.90
2023-07-05T16:42:14.898Z,4.85
2023-07-05T16:43:16.713Z,4.60
2023-07-05T16:44:18.591Z,4.80
2023-07-05T16:45:20.461Z,5.25
2023-07-05T16:46:25.298Z,5.10
2023-07-05T16:47:27.265Z,4.85
2023-07-05T16:48:29.670Z,5.18
2023-07-05T16:49:31.510Z,4.72
2023-07-05T16:50:33.287Z,4.68
2023-07-05T16:51:34.988Z,4.80
2023-07-05T16:52:36.820Z,4.53
2023-07-05T16:53:40.392Z,4.70